Forside
METAR-TAF:

METAR-TAF

Lufthavne :

Miyazaki, Japan

Breddekreds: 31-52N, længdekreds: 131-27E, højde: 6 m

Aktuelle vejr

Denne rapport blev lavet for 59 minutter siden, kl. 08:00 UTC
Vind 9 kt fra nordøst, varierende mellem nordnordøst og øst
Temperatur 12°C
Fugtighed 58%
Tryk 1023 hPa
Sigt 10 km eller mere
Nogle få skyer i en højde af 2500 ft
Brudte skyer i en højde af 3500 ft

METAR: RJFM 270800Z 05009KT 020V090 9999 FEW025 BKN035 12/04 Q1023

Tid: 17:59 (08:59 UTC)

Vejrudsigter

Denne rapport blev lavet for 3 timer og 53 minutter siden, kl. 05:06 UTC
Foreløbig gælder fra 27 på 06 UTC til 28 på 12 UTC
Vind 14 kt fra østnordøst
Sigt 10 km eller mere
Nogle få skyer i en højde af 2500 ft
Brudte skyer i en højde af 3500 ft
ændring
fra 27 på 14 UTC til 27 på 16 UTC
Vind 11 kt fra nord
ændring
fra 28 på 00 UTC til 28 på 03 UTC
Vind 8 kt fra nordøst

TAF: RJFM 270506Z 2706/2812 06014KT 9999 FEW025 BKN035 BECMG 2714/2716 35011KT BECMG 2800/2803 05008KT

Vejrobservationer og prognoser fra mere end 4000 lufthavne (METAR og TAF).

De gule og røde prikker repræsenterer de meteorologiske stationer.

Flyt musen over at se navnet på stationen.

Så klik over at se vejr observationer og prognoser.

At skifte det kort: Klik på de grønne knapper med et sort kors for at zoome ind; på den grønne knap med en bindestreg for at zoome ud; eller på de grønne pile for tilstødende kort.


METAR-TAF: